Hawaii Volcanoes National Park, HI

5:06 AM HST on August 22, 2014 (GMT -1000)
Bradshaw Army Air Field | Change Station
CLOSE
Current Station
Airport
Location: Bradshaw AFB,
Elevation: 6191 ft
Nearby Weather Stations
Active Advisory: High Surf Advisory

Elev 6191 ft 19.76 °N, 155.55 °W | Updated 10 minutes ago

Clear
Clear
51 °F
Feels Like 51 °F
N
8
Wind Variable Wind from SE

Today
High -- | Low -- °F
--% Chance of Precip.
Yesterday
High -- | Low -- °F
Precip. -- in
6:03 AM 6:43 PM
Waning Crescent, 8% visible
Pressure 29.97 in
Visibility 12.0 miles
Clouds Clear
Dew Point 41 °F
Humidity 70%
Rainfall 0.00 in
Snow Depth Not available.
UV 0 out of 12
Pollen Not available.
Air Quality Not available.
Flu Activity Not available.
METAR PHSF 221456Z AUTO 13007KT 12SM CLR 10/05 A3030 RMK AO2 SLP147 T01040052 57012

More Conditions Fewer Conditions

Pressure 29.97 in
Visibility 12.0 miles
Clouds Clear
Dew Point 41 °F
Humidity 70%
Rainfall 0.00 in
Snow Depth Not available.
UV 0 out of 12
Pollen Not available.
Air Quality Not available.
Flu Activity Not available.
METAR PHSF 221456Z AUTO 13007KT 12SM CLR 10/05 A3030 RMK AO2 SLP147 T01040052 57012

More Conditions Fewer Conditions

10-Day Weather Forecast

Almanac

Astronomy

Aug. 22, 2014 Rise Set
Actual Time 6:03 AM HST 6:43 PM HST
Civil Twilight 5:41 AM HST 7:06 PM HST
Nautical Twilight 5:14 AM HST 7:32 PM HST
Astronomical Twilight 4:47 AM HST 7:59 PM HST
Moon 3:45 AM HST 4:52 PM HST
Length of Visible Light 13h 25m
Length of Day
12h 40m
Tomorrow will be 1m 1s shorter.
Waning Crescent, 8% of the Moon is Illuminated
Today
Waning Crescent
Aug 25
New
Sep 2
First Quarter
Sep 8
Full
Sep 15
Last Quarter

Today's Extremes

State Highs State Lows

Community

WunderPhotos

Upload Photos

1,746,185 photos uploaded!

WunderBlogs® & News

Nearby

Snow Depth

Station Depth Elevation
No new snow has been reported.

Earthquake Activity

City Distance Mag. Time & Date
No recent earthquake activity has been reported nearby.
Minimum magnitude displayed is 2.5.

Coastal Water Temperatures

Place Temperature
No Stations Reporting

Nearby Weather Stations